Jerome, Idaho
Current Conditions -  °F | °C
As of 5:32 AM on Monday 22 Dec 2014 (Local Time) from KJER Reporting Station
Moderate Fog Moderate Fog  
Wind Chill: 26°   Ceiling: 200
Heat Index: 36°   Visibility: 0.25mi
Dew Point: 35°   Wind: 18mph
Humidity: 97%   Direction: 250°WSW
Pressure: 30.04"   Gusts: NA
Location:  42.72°N, 114.51°W
Report Text: KJER 221232Z AUTO 25016KT 1/4SM FG VV002 02/02 A3004 RMK AO2 T00220017
Loading
Personal Weather Stations






























Interactive Weather Map New forecast layout! Learn more

10-Day Weather Forecast

Advertisements
Track Severe Weather on mobile